createdAt,value
2018-07-10T00:02:27.315Z,10.75
2018-07-10T00:07:20.614Z,12.10
2018-07-10T00:11:23.607Z,5.75
2018-07-10T00:14:00.261Z,5.28
2018-07-10T00:16:36.479Z,5.45
2018-07-10T00:19:12.278Z,12.53
2018-07-10T00:21:47.938Z,6.70
2018-07-10T00:24:24.066Z,6.70
2018-07-10T00:27:00.229Z,7.40
2018-07-10T00:29:36.470Z,7.72
2018-07-10T00:32:12.731Z,6.58
2018-07-10T00:34:49.110Z,6.50
2018-07-10T00:37:25.305Z,13.05
2018-07-10T00:40:01.410Z,7.62
2018-07-10T00:42:37.737Z,6.45
2018-07-10T00:45:13.883Z,5.35
2018-07-10T00:47:50.092Z,5.50
2018-07-10T00:50:26.485Z,6.45
2018-07-10T00:53:02.730Z,8.03
2018-07-10T00:55:39.029Z,7.78
2018-07-10T00:58:15.410Z,9.30
2018-07-10T01:00:52.858Z,12.07
2018-07-10T01:03:29.369Z,11.20
2018-07-10T01:06:05.409Z,12.63
2018-07-10T01:08:41.819Z,5.72
2018-07-10T01:11:19.288Z,6.50
2018-07-10T01:13:55.488Z,10.10
2018-07-10T01:16:36.181Z,6.00
2018-07-10T01:19:16.467Z,11.10
2018-07-10T01:21:53.009Z,7.10
2018-07-10T01:24:29.246Z,5.83
2018-07-10T01:27:05.489Z,7.97
2018-07-10T01:29:46.736Z,4.80
2018-07-10T01:32:23.060Z,8.95
2018-07-10T01:34:59.364Z,13.95
2018-07-10T01:37:36.139Z,4.58
2018-07-10T01:40:12.398Z,12.63
2018-07-10T01:42:48.565Z,7.53
2018-07-10T01:45:24.909Z,6.20
2018-07-10T01:48:01.043Z,8.13
2018-07-10T01:50:37.139Z,8.05
2018-07-10T01:53:13.310Z,5.97
2018-07-10T01:55:49.499Z,10.58
2018-07-10T01:58:26.589Z,9.25
2018-07-10T02:01:03.110Z,8.38
2018-07-10T02:03:39.368Z,9.88
2018-07-10T02:06:15.636Z,11.05
2018-07-10T02:08:51.808Z,9.35
2018-07-10T02:11:28.271Z,7.95
2018-07-10T02:14:04.610Z,5.03
2018-07-10T02:16:41.044Z,9.43
2018-07-10T02:19:17.288Z,9.63
2018-07-10T02:21:53.515Z,8.73
2018-07-10T02:24:29.900Z,8.08
2018-07-10T02:27:06.249Z,11.78
2018-07-10T02:29:42.485Z,6.25
2018-07-10T02:32:18.779Z,5.35
2018-07-10T02:34:55.229Z,9.08
2018-07-10T02:37:32.508Z,11.30
2018-07-10T02:40:08.742Z,8.03
2018-07-10T02:42:45.260Z,10.98
2018-07-10T02:45:22.178Z,7.70
2018-07-10T02:47:58.236Z,12.53
2018-07-10T02:50:34.772Z,5.85
2018-07-10T02:53:11.129Z,7.10
2018-07-10T02:55:47.517Z,12.13
2018-07-10T02:58:27.125Z,8.63
2018-07-10T03:01:03.713Z,6.78
2018-07-10T03:03:43.529Z,8.45
2018-07-10T03:06:19.802Z,12.85
2018-07-10T03:08:56.610Z,10.88
2018-07-10T03:11:32.716Z,7.58
2018-07-10T03:14:10.129Z,10.50
2018-07-10T03:16:47.039Z,14.78
2018-07-10T03:19:23.249Z,8.15
2018-07-10T03:21:59.398Z,7.58
2018-07-10T03:24:35.730Z,7.00
2018-07-10T03:27:12.077Z,10.03
2018-07-10T03:29:48.459Z,8.33
2018-07-10T03:32:24.720Z,11.88
2018-07-10T03:35:00.823Z,8.98
2018-07-10T03:37:37.116Z,6.55
2018-07-10T03:40:13.201Z,9.63
2018-07-10T03:42:49.466Z,12.28
2018-07-10T03:45:26.891Z,8.05
2018-07-10T03:48:02.987Z,12.40
2018-07-10T03:50:39.587Z,7.17
2018-07-10T03:53:15.837Z,13.32
2018-07-10T03:55:52.139Z,9.35
2018-07-10T03:58:28.524Z,9.05
2018-07-10T04:01:05.051Z,11.83
2018-07-10T04:03:41.317Z,11.57
2018-07-10T04:06:17.666Z,7.35
2018-07-10T04:08:54.107Z,14.80
2018-07-10T04:11:30.436Z,6.37
2018-07-10T04:14:06.697Z,9.18
2018-07-10T04:16:43.621Z,9.98
2018-07-10T04:19:20.449Z,9.15
2018-07-10T04:21:58.128Z,12.90
2018-07-10T04:24:34.489Z,6.37
2018-07-10T04:27:15.738Z,9.05
2018-07-10T04:29:58.780Z,11.10
2018-07-10T04:32:37.161Z,8.85
2018-07-10T04:35:15.615Z,14.45
2018-07-10T04:37:52.140Z,8.10
2018-07-10T04:40:31.636Z,8.85
2018-07-10T04:43:11.949Z,10.63
2018-07-10T04:45:48.848Z,17.90
2018-07-10T04:48:28.655Z,9.55
2018-07-10T04:51:37.093Z,14.90
2018-07-10T04:54:39.234Z,12.40
2018-07-10T04:57:17.828Z,10.63
2018-07-10T04:59:54.209Z,7.97
2018-07-10T05:02:30.470Z,14.60
2018-07-10T05:05:07.265Z,11.33
2018-07-10T05:07:44.050Z,12.85
2018-07-10T05:10:20.171Z,10.63
2018-07-10T05:12:56.506Z,7.28
2018-07-10T05:15:32.887Z,8.28
2018-07-10T05:18:10.889Z,10.10
2018-07-10T05:20:47.229Z,7.10
2018-07-10T05:23:23.493Z,9.58
2018-07-10T05:25:59.618Z,7.53
2018-07-10T05:28:35.838Z,10.75
2018-07-10T05:31:12.149Z,8.65
2018-07-10T05:33:49.020Z,9.58
2018-07-10T05:36:25.428Z,8.33
2018-07-10T05:39:07.066Z,7.58
2018-07-10T05:41:46.016Z,8.28
2018-07-10T05:44:23.449Z,8.15
2018-07-10T05:47:02.055Z,10.60
2018-07-10T05:49:39.940Z,8.70
2018-07-10T05:52:16.289Z,8.33
2018-07-10T05:54:52.682Z,11.95
2018-07-10T05:57:28.729Z,9.78
2018-07-10T06:00:05.123Z,12.60
2018-07-10T06:02:41.263Z,6.97
2018-07-10T06:05:17.563Z,10.40
2018-07-10T06:07:54.651Z,7.05
2018-07-10T06:10:30.932Z,10.88
2018-07-10T06:13:07.504Z,8.35
2018-07-10T06:15:43.594Z,8.65
2018-07-10T06:18:19.707Z,10.40
2018-07-10T06:20:55.900Z,12.43
2018-07-10T06:23:42.862Z,10.95
2018-07-10T06:26:19.191Z,16.52
2018-07-10T06:29:00.088Z,10.58
2018-07-10T06:31:50.041Z,7.30
2018-07-10T06:34:36.201Z,6.80
2018-07-10T06:37:12.769Z,7.80
2018-07-10T06:39:48.966Z,11.53
2018-07-10T06:42:29.482Z,6.95
2018-07-10T06:45:05.659Z,8.40
2018-07-10T06:47:46.999Z,7.13
2018-07-10T06:50:23.338Z,7.37
2018-07-10T06:52:59.298Z,5.30
2018-07-10T06:56:14.600Z,4.47
2018-07-10T06:58:51.264Z,6.20
2018-07-10T07:01:27.643Z,6.30
2018-07-10T07:04:07.469Z,6.77
2018-07-10T07:06:43.698Z,8.53
2018-07-10T07:09:20.029Z,5.30
2018-07-10T07:11:56.659Z,6.70
2018-07-10T07:14:33.018Z,7.03
2018-07-10T07:17:09.347Z,6.20
2018-07-10T07:19:46.449Z,4.70
2018-07-10T07:22:22.407Z,6.63
2018-07-10T07:24:58.744Z,6.33
2018-07-10T07:27:35.138Z,6.73
2018-07-10T07:30:11.589Z,6.80
2018-07-10T07:32:48.503Z,5.87
2018-07-10T07:35:24.498Z,6.93
2018-07-10T07:38:02.367Z,5.50
2018-07-10T07:40:38.716Z,3.93
2018-07-10T07:43:15.043Z,5.80
2018-07-10T07:45:51.976Z,8.00
2018-07-10T07:48:28.114Z,3.50
2018-07-10T07:51:04.248Z,6.10
2018-07-10T07:53:40.620Z,6.57
2018-07-10T07:56:17.101Z,8.53
2018-07-10T07:58:53.562Z,7.33
2018-07-10T08:01:29.789Z,7.70
2018-07-10T08:04:05.938Z,5.20
2018-07-10T08:06:42.048Z,6.20
2018-07-10T08:09:18.508Z,5.97
2018-07-10T08:11:54.739Z,7.93
2018-07-10T08:14:31.045Z,6.90
2018-07-10T08:17:07.321Z,3.10
2018-07-10T08:19:44.790Z,5.93
2018-07-10T08:22:21.054Z,5.10
2018-07-10T08:24:57.627Z,5.70
2018-07-10T08:27:34.795Z,3.83
2018-07-10T08:30:11.266Z,4.13
2018-07-10T08:32:48.526Z,5.20
2018-07-10T08:35:24.689Z,3.63
2018-07-10T08:38:00.898Z,4.73
2018-07-10T08:40:37.135Z,3.50
2018-07-10T08:43:13.375Z,5.57
2018-07-10T08:45:49.805Z,6.03
2018-07-10T08:48:26.035Z,4.90
2018-07-10T08:51:02.408Z,5.60
2018-07-10T08:53:39.113Z,5.33
2018-07-10T08:56:15.248Z,6.90
2018-07-10T08:58:51.634Z,5.67
2018-07-10T09:01:29.430Z,8.47
2018-07-10T09:04:05.737Z,9.40
2018-07-10T09:06:41.888Z,5.23
2018-07-10T09:09:18.591Z,3.67
2018-07-10T09:11:54.548Z,5.67
2018-07-10T09:14:30.634Z,7.00
2018-07-10T09:17:07.041Z,7.57
2018-07-10T09:19:43.318Z,5.03
2018-07-10T09:22:19.565Z,4.80
2018-07-10T09:24:57.978Z,3.33
2018-07-10T09:27:34.382Z,6.83
2018-07-10T09:30:10.354Z,3.30
2018-07-10T09:32:46.610Z,5.93
2018-07-10T09:35:23.025Z,11.00
2018-07-10T09:37:59.463Z,4.43
2018-07-10T09:40:36.945Z,3.93
2018-07-10T09:43:13.328Z,4.37
2018-07-10T09:45:49.475Z,4.63
2018-07-10T09:48:25.645Z,6.50
2018-07-10T09:51:01.973Z,5.10
2018-07-10T09:53:38.151Z,7.03
2018-07-10T09:56:14.628Z,4.83
2018-07-10T09:58:51.830Z,4.80
2018-07-10T10:01:32.881Z,8.30
2018-07-10T10:04:09.393Z,5.90
2018-07-10T10:06:45.620Z,4.43
2018-07-10T10:09:21.875Z,4.20
2018-07-10T10:11:58.128Z,3.20
2018-07-10T10:14:34.300Z,5.43
2018-07-10T10:17:10.721Z,5.13
2018-07-10T10:19:47.259Z,4.70
2018-07-10T10:22:23.294Z,5.57
2018-07-10T10:25:00.956Z,7.67
2018-07-10T10:27:37.248Z,4.40
2018-07-10T10:30:13.517Z,4.90
2018-07-10T10:32:49.661Z,6.87
2018-07-10T10:35:26.334Z,6.00
2018-07-10T10:38:03.222Z,7.17
2018-07-10T10:40:40.478Z,5.80
2018-07-10T10:43:16.719Z,4.93
2018-07-10T10:45:52.932Z,6.10
2018-07-10T10:48:29.062Z,4.93
2018-07-10T10:51:05.079Z,4.60
2018-07-10T10:53:41.449Z,5.20
2018-07-10T10:56:17.698Z,7.73
2018-07-10T10:58:53.668Z,5.37
2018-07-10T11:01:30.186Z,4.30
2018-07-10T11:04:06.486Z,5.20
2018-07-10T11:06:42.850Z,4.17
2018-07-10T11:09:19.028Z,9.17
2018-07-10T11:11:55.829Z,3.57
2018-07-10T11:14:31.806Z,7.80
2018-07-10T11:17:13.749Z,4.73
2018-07-10T11:20:59.012Z,9.20
2018-07-10T11:23:53.959Z,5.90
2018-07-10T11:26:37.566Z,5.20
2018-07-10T11:29:14.446Z,5.03
2018-07-10T11:31:50.665Z,3.80
2018-07-10T11:34:26.868Z,3.93
2018-07-10T11:37:03.222Z,6.77
2018-07-10T11:39:39.627Z,4.90
2018-07-10T11:42:15.656Z,5.63
2018-07-10T11:44:51.916Z,3.70
2018-07-10T11:47:28.301Z,5.97
2018-07-10T11:50:04.456Z,8.77
2018-07-10T11:52:40.426Z,3.43
2018-07-10T11:55:16.899Z,5.47
2018-07-10T11:57:52.919Z,4.63
2018-07-10T12:00:29.193Z,5.53
2018-07-10T12:03:07.226Z,3.57
2018-07-10T12:05:43.724Z,5.03
2018-07-10T12:08:20.720Z,5.43
2018-07-10T12:11:07.955Z,5.80
2018-07-10T12:13:44.640Z,6.47
2018-07-10T12:16:20.884Z,3.63
2018-07-10T12:18:57.067Z,3.37
2018-07-10T12:21:34.174Z,4.20
2018-07-10T12:24:10.460Z,7.33
2018-07-10T12:26:46.555Z,4.70
2018-07-10T12:29:22.755Z,3.90
2018-07-10T12:31:59.300Z,3.80
2018-07-10T12:34:35.477Z,4.10
2018-07-10T12:37:11.566Z,6.40
2018-07-10T12:39:47.713Z,4.73
2018-07-10T12:42:24.240Z,4.33
2018-07-10T12:45:00.720Z,6.73
2018-07-10T12:47:37.059Z,6.13
2018-07-10T12:50:13.288Z,6.10
2018-07-10T12:52:49.790Z,4.93
2018-07-10T12:55:26.797Z,6.23
2018-07-10T12:58:03.140Z,4.73
2018-07-10T13:00:40.375Z,3.60
2018-07-10T13:03:17.799Z,4.23
2018-07-10T13:05:56.492Z,6.30
2018-07-10T13:08:32.780Z,3.77
2018-07-10T13:11:08.857Z,12.17
2018-07-10T13:13:45.239Z,4.80
2018-07-10T13:16:21.386Z,5.17
2018-07-10T13:18:57.663Z,6.60
2018-07-10T13:21:33.782Z,3.10
2018-07-10T13:24:10.037Z,6.83
2018-07-10T13:26:46.157Z,3.63
2018-07-10T13:29:23.398Z,4.60
2018-07-10T13:31:59.571Z,7.17
2018-07-10T13:34:35.807Z,3.33
2018-07-10T13:37:11.968Z,6.70
2018-07-10T13:39:48.147Z,5.70
2018-07-10T13:42:37.331Z,5.70
2018-07-10T13:45:14.259Z,7.20
2018-07-10T13:47:50.273Z,13.60
2018-07-10T13:50:28.445Z,3.87
2018-07-10T13:53:04.991Z,4.90
2018-07-10T13:55:41.107Z,4.40
2018-07-10T13:58:22.259Z,3.83
2018-07-10T14:01:04.399Z,6.53
2018-07-10T14:03:40.451Z,8.17
2018-07-10T14:06:16.631Z,8.30
2018-07-10T14:08:52.940Z,6.33
2018-07-10T14:11:29.258Z,6.13
2018-07-10T14:14:05.783Z,3.17
2018-07-10T14:16:42.169Z,2.73
2018-07-10T14:19:18.321Z,3.93
2018-07-10T14:21:54.517Z,3.60
2018-07-10T14:24:30.715Z,3.90
2018-07-10T14:27:07.802Z,7.20
2018-07-10T14:29:44.532Z,4.30
2018-07-10T14:32:20.678Z,5.30
2018-07-10T14:34:57.784Z,4.60
2018-07-10T14:37:35.460Z,6.30
2018-07-10T14:40:13.897Z,2.80
2018-07-10T14:42:51.000Z,3.93
2018-07-10T14:45:27.420Z,3.17
2018-07-10T14:48:05.711Z,2.90
2018-07-10T14:50:41.636Z,9.97
2018-07-10T14:53:24.201Z,4.10
2018-07-10T14:56:00.539Z,3.27
2018-07-10T14:58:36.646Z,3.00
2018-07-10T15:01:12.859Z,3.80
2018-07-10T15:03:49.209Z,3.73
2018-07-10T15:06:25.190Z,5.10
2018-07-10T15:09:01.248Z,3.93
2018-07-10T15:11:37.635Z,3.10
2018-07-10T15:14:13.797Z,4.40
2018-07-10T15:16:55.097Z,6.50
2018-07-10T15:19:31.251Z,8.17
2018-07-10T15:22:07.620Z,4.10
2018-07-10T15:24:43.566Z,5.63
2018-07-10T15:27:19.699Z,5.53
2018-07-10T15:29:55.771Z,2.73
2018-07-10T15:32:31.974Z,2.80
2018-07-10T15:35:08.309Z,4.90
2018-07-10T15:37:44.443Z,3.37
2018-07-10T15:40:20.715Z,6.93
2018-07-10T15:42:56.836Z,4.67
2018-07-10T15:45:33.120Z,4.20
2018-07-10T15:48:09.085Z,6.20
2018-07-10T15:50:44.930Z,4.67
2018-07-10T15:53:20.926Z,4.80
2018-07-10T15:55:57.158Z,5.67
2018-07-10T15:58:33.287Z,4.27
2018-07-10T16:01:09.619Z,3.17
2018-07-10T16:03:45.805Z,7.00
2018-07-10T16:06:21.896Z,4.37
2018-07-10T16:09:14.585Z,3.50
2018-07-10T16:11:57.321Z,7.27
2018-07-10T16:14:33.865Z,4.03
2018-07-10T16:17:26.769Z,5.07
2018-07-10T16:20:10.208Z,5.53
2018-07-10T16:22:46.613Z,3.80
2018-07-10T16:25:26.605Z,5.73
2018-07-10T16:28:12.019Z,6.07
2018-07-10T16:30:50.315Z,9.03
2018-07-10T16:33:29.351Z,4.00
2018-07-10T16:36:07.720Z,10.27
2018-07-10T16:38:44.536Z,8.67
2018-07-10T16:41:25.739Z,4.33
2018-07-10T16:44:04.188Z,6.83
2018-07-10T16:46:41.427Z,6.60
2018-07-10T16:49:23.698Z,4.93
2018-07-10T16:52:12.901Z,6.67
2018-07-10T16:54:49.356Z,6.80
2018-07-10T16:57:25.502Z,6.77
2018-07-10T17:00:02.128Z,10.10
2018-07-10T17:02:38.221Z,6.60
2018-07-10T17:05:14.429Z,6.70
2018-07-10T17:07:50.848Z,5.90
2018-07-10T17:10:27.145Z,9.47
2018-07-10T17:13:03.445Z,4.80
2018-07-10T17:15:39.551Z,11.70
2018-07-10T17:18:15.995Z,7.87
2018-07-10T17:20:52.249Z,6.77
2018-07-10T17:23:28.746Z,8.13
2018-07-10T17:26:05.031Z,6.53
2018-07-10T17:28:41.958Z,10.07
2018-07-10T17:31:18.179Z,5.00
2018-07-10T17:33:54.528Z,6.10
2018-07-10T17:36:30.709Z,8.43
2018-07-10T17:39:06.982Z,10.57
2018-07-10T17:41:43.142Z,9.40
2018-07-10T17:44:19.381Z,10.17
2018-07-10T17:46:55.629Z,10.00
2018-07-10T17:49:31.969Z,13.87
2018-07-10T17:52:08.382Z,9.03
2018-07-10T17:54:44.406Z,7.80
2018-07-10T17:57:20.605Z,8.73
2018-07-10T17:59:58.425Z,8.37
2018-07-10T18:02:34.688Z,13.73
2018-07-10T18:05:10.720Z,5.97
2018-07-10T18:07:47.029Z,6.33
2018-07-10T18:10:23.396Z,8.13
2018-07-10T18:12:59.847Z,10.73
2018-07-10T18:15:36.089Z,7.90
2018-07-10T18:18:12.289Z,7.67
2018-07-10T18:20:48.468Z,8.23
2018-07-10T18:23:24.760Z,9.53
2018-07-10T18:26:00.856Z,6.27
2018-07-10T18:28:37.135Z,6.07
2018-07-10T18:31:13.556Z,8.23
2018-07-10T18:33:49.732Z,11.70
2018-07-10T18:36:25.753Z,6.73
2018-07-10T18:39:02.099Z,7.67
2018-07-10T18:41:38.301Z,5.60
2018-07-10T18:44:14.483Z,3.70
2018-07-10T18:46:50.748Z,4.50
2018-07-10T18:49:26.909Z,9.53
2018-07-10T18:52:02.922Z,6.03
2018-07-10T18:54:40.073Z,6.10
2018-07-10T18:58:37.399Z,7.70
2018-07-10T19:01:24.747Z,5.67
2018-07-10T19:04:01.909Z,9.10
2018-07-10T19:06:37.991Z,8.20
2018-07-10T19:09:33.669Z,7.63
2018-07-10T19:12:11.837Z,6.37
2018-07-10T19:14:48.184Z,6.90
2018-07-10T19:17:27.835Z,4.40
2018-07-10T19:20:08.865Z,5.93
2018-07-10T19:22:57.749Z,7.47
2018-07-10T19:25:34.808Z,8.10
2018-07-10T19:28:12.957Z,5.90
2018-07-10T19:31:05.536Z,9.80
2018-07-10T19:33:43.747Z,6.87
2018-07-10T19:36:19.837Z,6.50
2018-07-10T19:38:56.004Z,8.00
2018-07-10T19:41:32.368Z,8.80
2018-07-10T19:44:08.606Z,6.07
2018-07-10T19:46:44.907Z,5.57
2018-07-10T19:49:22.990Z,11.07
2018-07-10T19:51:59.609Z,6.30
2018-07-10T19:54:36.080Z,6.50
2018-07-10T19:57:12.189Z,6.60
2018-07-10T19:59:48.361Z,13.87
2018-07-10T20:02:24.620Z,7.73
2018-07-10T20:05:06.180Z,10.60
2018-07-10T20:08:00.358Z,15.77
2018-07-10T20:10:41.942Z,12.67
2018-07-10T20:13:50.687Z,22.77
2018-07-10T20:16:39.294Z,14.23
2018-07-10T20:19:19.013Z,46.00
2018-07-10T20:22:03.976Z,13.77
2018-07-10T20:24:44.203Z,10.67
2018-07-10T20:27:27.519Z,34.75
2018-07-10T20:32:35.425Z,29.43
2018-07-10T20:35:19.492Z,30.10
2018-07-10T20:37:55.687Z,22.80
2018-07-10T20:40:37.320Z,16.47
2018-07-10T20:43:15.499Z,50.30
2018-07-10T20:45:55.554Z,15.78
2018-07-10T20:49:07.477Z,14.15
2018-07-10T20:51:57.276Z,17.23
2018-07-10T20:54:43.494Z,20.20
2018-07-10T20:57:27.450Z,27.58
2018-07-10T21:00:05.970Z,28.55
2018-07-10T21:03:20.014Z,31.77
2018-07-10T21:05:57.247Z,24.12
2018-07-10T21:08:38.749Z,16.55
2018-07-10T21:11:18.029Z,30.70
2018-07-10T21:14:00.580Z,22.93
2018-07-10T21:17:16.697Z,30.70
2018-07-10T21:20:02.171Z,20.12
2018-07-10T21:22:46.807Z,29.70
2018-07-10T21:25:29.800Z,25.85
2018-07-10T21:28:15.036Z,13.65
2018-07-10T21:30:57.306Z,14.15
2018-07-10T21:33:49.969Z,17.48
2018-07-10T21:36:35.016Z,16.82
2018-07-10T21:39:16.529Z,27.35
2018-07-10T21:42:04.358Z,22.82
2018-07-10T21:45:18.636Z,29.40
2018-07-10T21:48:11.808Z,22.40
2018-07-10T21:50:53.339Z,33.33
2018-07-10T21:53:29.786Z,22.05
2018-07-10T21:56:06.068Z,27.25
2018-07-10T21:58:42.298Z,24.92
2018-07-10T22:01:39.302Z,18.40
2018-07-10T22:04:17.640Z,21.57
2018-07-10T22:06:56.802Z,25.37
2018-07-10T22:09:35.330Z,19.37
2018-07-10T22:12:15.290Z,23.42
2018-07-10T22:14:51.567Z,22.13
2018-07-10T22:17:28.389Z,29.45
2018-07-10T22:20:04.641Z,16.00
2018-07-10T22:22:41.101Z,24.90
2018-07-10T22:25:17.329Z,18.15
2018-07-10T22:27:53.646Z,20.23
2018-07-10T22:30:34.885Z,18.95
2018-07-10T22:33:11.188Z,20.27
2018-07-10T22:35:47.526Z,18.57
2018-07-10T22:38:23.839Z,22.37
2018-07-10T22:41:00.406Z,23.40
2018-07-10T22:43:36.938Z,18.48
2018-07-10T22:46:13.435Z,23.05
2018-07-10T22:48:49.846Z,21.93
2018-07-10T22:51:26.468Z,25.92
2018-07-10T22:54:03.516Z,18.67
2018-07-10T22:56:39.653Z,24.45
2018-07-10T22:59:16.393Z,20.15
2018-07-10T23:01:52.486Z,24.60
2018-07-10T23:04:28.389Z,25.23
2018-07-10T23:07:04.827Z,16.87
2018-07-10T23:09:40.936Z,23.75
2018-07-10T23:12:16.748Z,22.05
2018-07-10T23:14:52.846Z,26.87
2018-07-10T23:17:28.788Z,28.07
2018-07-10T23:20:04.646Z,25.37
2018-07-10T23:22:51.969Z,17.40
2018-07-10T23:25:28.429Z,20.57
2018-07-10T23:28:06.794Z,23.75
2018-07-10T23:30:43.906Z,25.02
2018-07-10T23:33:21.629Z,19.37
2018-07-10T23:35:59.316Z,19.62
2018-07-10T23:38:40.740Z,28.05
2018-07-10T23:41:39.898Z,24.98
2018-07-10T23:44:15.969Z,14.15
2018-07-10T23:46:57.481Z,26.20
2018-07-10T23:49:33.530Z,26.90
2018-07-10T23:52:23.403Z,20.00
2018-07-10T23:54:59.322Z,12.60
2018-07-10T23:57:35.688Z,16.85
